Chatsworth, Illinois
Current Conditions -  °F | °C
As of 8:35 PM on Sunday 23 Nov 2014 (Local Time) from KPNT Reporting Station
Moderate Rain Moderate Rain  
Wind Chill: 50°   Ceiling: 400
Heat Index: 50°   Visibility: 0.75mi
Dew Point: 50°   Wind: 0mph
Humidity: 100%   Direction: NA
Pressure: 29.23"   Gusts: NA
Location:  40.75°N, 88.29°W
Report Text: KPNT 240235Z AUTO 00000KT 3/4SM RA OVC004 10/10 A2923 RMK AO2 P0005 T01020102
Loading
Personal Weather Stations






























Interactive Weather Map New forecast layout! Learn more

10-Day Weather Forecast

Advertisements
Track Severe Weather on mobile